x

Central Aleutians 230nm Sw Dutch Harbor (46072) Wave Buoy

4:50pm - Tue 30th Sep 2014 All times are UTC.

  • Sig Wave height 13.4ft
  • Peak Period 10s
  • Average Period 7s
  • Wind
    29mph, 38mph gusts
  • Sea Temp 50°f
  • 空気 Temp 51°f
  • Sea Pressure 1011.1mb

More Historic Weather Station data

Upgrade to MSW Pro to gain access to the past 30 days of data for over 8000 Wavebouys and Weather Stations around the globe.

Join Pro

Comparision Forecast

View Surf forecast
   
Tue 09/30 4:50pm 13.5ft 10s 7s 29 38 mph 1011.1mb 50f 51f
3:50pm 13ft 9s 6s 27 31 mph 1011.2mb 50f 51f
2:50pm 13ft 9s 6s 29 36 mph 1011mb 50f 51f
1:50pm 14ft 9s 7s 29 36 mph 1011.3mb 50f 51f
12:50pm 15ft 9s 7s 29 38 mph 1011.3mb 50f 52f
11:50am 13.5ft 9s 6s 29 36 mph 1011.3mb 50f 52f
10:50am 12.5ft 10s 6s 31 38 mph 1011mb 50f 52f
9:50am 14.5ft 9s 7s 29 38 mph 1011.3mb 50f 52f
8:50am 13.5ft 9s 6s 31 40 mph 1011.3mb 50f 51f
7:50am 14.5ft 9s 7s 29 34 mph 1011.4mb 50f 52f
6:50am 13ft 9s 6s 31 36 mph 1011mb 49f 52f
5:50am 14.5ft 10s 7s 29 36 mph 1010.5mb 49f 52f
4:50am 15ft 9s 7s 29 38 mph 1010.3mb 50f 51f
3:50am 15.5ft 9s 7s 31 38 mph 1009.8mb 50f 52f
2:50am 15ft 10s 7s 31 38 mph 1009.5mb 50f 52f
1:50am 14.5ft 9s 7s 31 38 mph 1009.1mb 49f 52f
12:50am 14ft 8s 6s 31 38 mph 1008.9mb 50f 52f
Mon 09/29 11:50pm 14.5ft 9s 7s 31 38 mph 1008.9mb 50f 52f
10:50pm 13ft 9s 6s 34 43 mph 1008.8mb 50f 52f
9:50pm 16ft 8s 7s 34 40 mph 1008.9mb 50f 52f
8:50pm 13ft 9s 6s 34 43 mph 1008.6mb 50f 52f
7:50pm 14.5ft 10s 7s 34 45 mph 1008.5mb 50f 52f
6:50pm 14.5ft 10s 7s 31 38 mph 1008.2mb 50f 52f
5:50pm 14ft 10s 7s 34 43 mph 1007.7mb 50f 52f
4:50pm 13.5ft 10s 6s 34 43 mph 1007.4mb 50f 52f
3:50pm 15ft 10s 7s 34 40 mph 1007.2mb 50f 52f
2:50pm 15ft 8s 7s 34 40 mph 1007.1mb 50f 52f
1:50pm 14ft 8s 6s 36 45 mph 1007.1mb 49f 52f
12:50pm 15ft 9s 7s 34 40 mph 1007.6mb 49f 51f
11:50am 14ft 8s 6s 36 45 mph 1007.4mb 49f 52f
10:50am 12ft 8s 6s 34 43 mph 1008mb 50f 51f
9:50am 13.5ft 8s 6s 31 43 mph 1008.3mb 50f 51f
8:50am 13ft 8s 6s 31 40 mph 1008.5mb 50f 51f
7:50am 13ft 13s 6s 31 40 mph 1008.4mb 49f 51f
6:50am 14ft 10s 6s 31 38 mph 1008.4mb 49f 51f
5:50am 14ft 10s 6s 31 40 mph 1008.4mb 49f 51f
4:50am 13ft 14s 6s 31 38 mph 1008.2mb 49f 51f
3:50am 14.5ft 10s 7s 29 38 mph 1008.2mb 49f 51f
2:50am 13ft 11s 6s 29 36 mph 1008.1mb 49f 51f
1:50am 12ft 7s 6s 29 34 mph 1008.2mb 49f 51f
12:50am 13ft 11s 6s 29 34 mph 1008.7mb 49f 51f
Sun 09/28 11:50pm 12ft 10s 6s 29 34 mph 1009.1mb 49f 51f
10:50pm 12ft 10s 6s 27 34 mph 1009.6mb 49f 51f
9:50pm 12ft 11s 6s 27 31 mph 1010.1mb 49f 51f
8:50pm 12ft 8s 6s 29 34 mph 1010.2mb 49f 51f
7:50pm 11.5ft 10s 6s 29 34 mph 1010.3mb 50f 51f
6:50pm 10ft 8s 6s 27 34 mph 1010.3mb 50f 51f
5:50pm 9.5ft 7s 6s 27 34 mph 1010.4mb 50f 51f
4:50pm 9ft 7s 5s 27 34 mph 1010.5mb 49f 51f
3:50pm 9ft 7s 5s 25 31 mph 1010.7mb 50f 51f
2:50pm 8.5ft 7s 5s 25 31 mph 1011mb 50f 51f
1:50pm 8ft 6s 5s 25 31 mph 1011.5mb 50f 51f
12:50pm 7ft 6s 5s 25 29 mph 1011.9mb 50f 51f
11:50am 6.5ft 6s 5s 25 29 mph 1011.8mb 49f 50f
10:50am 7ft 5s 5s 20 25 mph 1012.8mb 49f 51f
9:50am 6.5ft 6s 5s 22 27 mph 1013.2mb 50f 51f
8:50am 6ft 6s 5s 20 25 mph 1013.7mb 50f 50f
7:50am 5.5ft 6s 4s 20 25 mph 1014.2mb 50f 50f
6:50am 5ft 5s 4s 18 20 mph 1013.9mb 50f 50f
5:50am 4.5ft 5s 4s 18 22 mph 1014.6mb 50f 50f
4:50am 5ft 4s 4s 18 22 mph 1014.9mb 50f 50f
3:50am 4.5ft 8s 4s 18 22 mph 1015.5mb 51f 51f
2:50am 4.5ft 4s 4s 18 22 mph 1015.6mb 50f 50f
1:50am 4.5ft 8s 4s 18 22 mph 1015.7mb 50f 50f
12:50am 4.5ft 8s 5s 18 20 mph 1016.4mb 50f 50f
Sat 09/27 11:50pm 4ft 8s 5s 18 22 mph 1017.1mb 50f 50f
10:50pm 4.5ft 9s 5s 16 18 mph 1018mb 51f 50f
9:50pm 4ft 9s 6s 16 18 mph 1019mb 51f 50f
8:50pm 3.5ft 9s 6s 11 13 mph 1019.5mb 51f 50f
7:50pm 3.5ft 10s 7s 11
mph
1019.6mb 50f 49f
6:50pm 3.5ft 9s 6s 11
mph
1019.9mb 51f 49f
5:50pm 3.5ft 9s 6s 7 9 mph 1020.4mb 51f 49f
4:50pm 3.5ft 10s 6s 7
mph
1020.8mb 51f 49f
3:50pm 3.5ft 8s 6s 2 4 mph 1020.9mb 49f 49f
2:50pm 4.5ft 9s 6s 2 4 mph 1021.2mb 50f 49f
1:50pm 4.5ft 9s 6s 2
mph
1021.3mb 50f 48f
12:50pm 5ft 8s 5s  -  2 mph 1021.4mb 50f 49f
11:50am 6ft 6s 6s 2
mph
1021.3mb 50f 49f
10:50am 5.5ft 7s 6s  -  2 mph 1021.7mb 50f 48f
9:50am 5.5ft 7s 6s 2 4 mph 1022.1mb 50f 49f
8:50am 5ft 7s 6s 2 4 mph 1022.3mb 50f 49f
7:50am 5ft 7s 6s 2 4 mph 1022.3mb 50f 49f
6:50am 5ft 7s 6s 4 7 mph 1022.2mb 50f 49f
5:50am 5ft 7s 6s 7 11 mph 1021.8mb 50f 49f
4:50am 5.5ft 8s 6s 9 11 mph 1021.3mb 49f 49f
3:50am 5ft 7s 6s 9 13 mph 1021.2mb 49f 50f
2:50am 5.5ft 7s 6s 11 16 mph 1021mb 49f 50f
1:50am 6ft 7s 5s 16 18 mph 1020.5mb 49f 50f
12:50am 6.5ft 8s 5s 16 18 mph 1020.1mb 49f 50f
Fri 09/26 11:50pm 6.5ft 7s 6s 13 16 mph 1020.1mb 49f 50f
10:50pm 6.5ft 8s 6s 9 13 mph 1019.9mb 49f 49f
9:50pm 7ft 7s 6s 13 16 mph 1019.5mb 49f 49f
8:50pm 6ft 8s 6s 11 16 mph 1019.4mb 49f 50f
7:50pm 6.5ft 7s 6s 11 13 mph 1018.6mb 49f 49f
6:50pm 6ft 8s 6s 16 22 mph 1017.7mb 49f 49f